Time;durP1;ratioP1;P1;durP2;ratioP2;P2;SDS_P1;SDS_P2;PMS_P1;PMS_P2;Temp;Humidity;BMP_temperature;BMP_pressure;BME280_temperature;BME280_humidity;BME280_pressure;Samples;Min_cycle;Max_cycle;Signal;HPM_P1;HPM_P2
2023/04/21 00:00:52;;;;;;;7.28;3.83;;;;;;;;;;5007729;28;20099;-64
2023/04/21 00:03:20;;;;;;;6.68;3.67;;;;;;;;;;5007959;28;20042;-62
2023/04/21 00:05:48;;;;;;;7.72;3.97;;;;;;;;;;5004315;28;20033;-61
2023/04/21 00:08:15;;;;;;;6.88;3.33;;;;;;;;;;5006139;28;20431;-62
2023/04/21 00:10:42;;;;;;;6.95;3.70;;;;;;;;;;5008852;28;20131;-63
2023/04/21 00:13:08;;;;;;;7.65;3.50;;;;;;;;;;5009185;28;20078;-62
2023/04/21 00:15:35;;;;;;;8.30;4.15;;;;;;;;;;5007265;28;20050;-64
2023/04/21 00:18:02;;;;;;;6.82;3.70;;;;;;;;;;5008239;28;20048;-63
2023/04/21 00:20:29;;;;;;;10.38;4.03;;;;;;;;;;5020679;28;20046;-61
2023/04/21 00:22:56;;;;;;;7.07;3.58;;;;;;;;;;5007748;28;20103;-62
2023/04/21 00:25:23;;;;;;;6.05;3.45;;;;;;;;;;5021838;28;20124;-63
2023/04/21 00:27:50;;;;;;;5.35;3.15;;;;;;;;;;5006898;28;20041;-62
2023/04/21 00:30:17;;;;;;;7.60;3.83;;;;;;;;;;5023012;28;20045;-63
2023/04/21 00:32:44;;;;;;;6.40;3.33;;;;;;;;;;5022908;28;20042;-62
2023/04/21 00:35:11;;;;;;;7.00;3.72;;;;;;;;;;5006820;28;20053;-62
2023/04/21 00:37:39;;;;;;;9.45;3.25;;;;;;;;;;5002490;28;20080;-63
2023/04/21 00:40:06;;;;;;;6.38;3.45;;;;;;;;;;5007516;28;20152;-64
2023/04/21 00:42:32;;;;;;;6.95;3.65;;;;;;;;;;5007991;28;20046;-62
2023/04/21 00:44:59;;;;;;;5.28;3.10;;;;;;;;;;5004102;28;20151;-63
2023/04/21 00:47:26;;;;;;;6.70;3.53;;;;;;;;;;5016785;28;20037;-62
2023/04/21 00:49:53;;;;;;;10.82;3.92;;;;;;;;;;5010003;28;20041;-62
2023/04/21 00:52:20;;;;;;;8.98;3.50;;;;;;;;;;5010967;28;20390;-62
2023/04/21 00:54:47;;;;;;;10.65;5.32;;;;;;;;;;5007789;28;20502;-63
2023/04/21 00:57:14;;;;;;;11.43;4.47;;;;;;;;;;5008419;28;20124;-61
2023/04/21 00:59:40;;;;;;;8.65;3.80;;;;;;;;;;5008725;28;20496;-62
2023/04/21 01:02:07;;;;;;;6.18;3.17;;;;;;;;;;5009444;28;20054;-63
2023/04/21 01:04:39;;;;;;;8.23;3.50;;;;;;;;;;5023388;28;20034;-62
2023/04/21 01:07:06;;;;;;;6.13;3.50;;;;;;;;;;5022798;28;20037;-61
2023/04/21 01:09:33;;;;;;;5.63;3.15;;;;;;;;;;5006565;28;20030;-63
2023/04/21 01:12:06;;;;;;;12.30;3.95;;;;;;;;;;5008191;28;20040;-62
2023/04/21 01:14:33;;;;;;;6.60;3.30;;;;;;;;;;5005883;28;20064;-63
2023/04/21 01:17:00;;;;;;;7.70;3.60;;;;;;;;;;5022119;28;20073;-61
2023/04/21 01:19:30;;;;;;;7.40;3.38;;;;;;;;;;5006887;28;20077;-64
2023/04/21 01:21:59;;;;;;;6.47;3.40;;;;;;;;;;5034663;28;20053;-59
2023/04/21 01:24:36;;;;;;;7.20;3.53;;;;;;;;;;5036057;28;20063;-62
2023/04/21 01:27:02;;;;;;;5.60;3.22;;;;;;;;;;5013907;28;20041;-61
2023/04/21 01:29:33;;;;;;;6.30;3.60;;;;;;;;;;5005268;28;20108;-60
2023/04/21 01:32:04;;;;;;;6.50;3.50;;;;;;;;;;5007089;28;20061;-62
2023/04/21 01:34:31;;;;;;;6.63;3.58;;;;;;;;;;5005689;28;20049;-64
2023/04/21 01:36:57;;;;;;;7.93;3.72;;;;;;;;;;5007651;28;20177;-64
2023/04/21 01:39:24;;;;;;;11.10;3.97;;;;;;;;;;5009964;28;20045;-63
2023/04/21 01:41:51;;;;;;;11.98;4.50;;;;;;;;;;5014024;28;20053;-61
2023/04/21 01:44:17;;;;;;;7.97;4.45;;;;;;;;;;5026029;28;20050;-64
2023/04/21 01:46:44;;;;;;;7.15;3.85;;;;;;;;;;5025238;28;20940;-62
2023/04/21 01:49:11;;;;;;;10.15;3.42;;;;;;;;;;5013344;28;20542;-60
2023/04/21 01:51:37;;;;;;;7.95;3.45;;;;;;;;;;5012280;28;20040;-64
2023/04/21 01:54:04;;;;;;;7.93;3.80;;;;;;;;;;5013053;28;20423;-60
2023/04/21 01:56:31;;;;;;;6.30;3.78;;;;;;;;;;5010676;28;20232;-60
2023/04/21 01:58:58;;;;;;;6.68;3.58;;;;;;;;;;5013731;28;20045;-61
2023/04/21 02:01:24;;;;;;;10.43;3.60;;;;;;;;;;5010999;28;20080;-63
2023/04/21 02:03:51;;;;;;;7.07;3.67;;;;;;;;;;5012019;28;20132;-62
2023/04/21 02:06:18;;;;;;;7.28;3.67;;;;;;;;;;5028539;28;20042;-61
2023/04/21 02:08:44;;;;;;;8.02;3.42;;;;;;;;;;5012750;28;20038;-62
2023/04/21 02:11:11;;;;;;;6.57;3.30;;;;;;;;;;5025414;28;20034;-60
2023/04/21 02:13:38;;;;;;;6.10;3.60;;;;;;;;;;5011303;28;20088;-63
2023/04/21 02:16:05;;;;;;;6.53;3.47;;;;;;;;;;5027494;28;20048;-60
2023/04/21 02:18:33;;;;;;;6.07;3.20;;;;;;;;;;5012955;28;20065;-60
2023/04/21 02:21:00;;;;;;;7.63;4.80;;;;;;;;;;5010576;28;20060;-63
2023/04/21 02:23:26;;;;;;;9.07;4.47;;;;;;;;;;5010002;28;20038;-62
2023/04/21 02:25:56;;;;;;;7.82;3.40;;;;;;;;;;5012891;28;20045;-61
2023/04/21 02:28:22;;;;;;;11.98;5.03;;;;;;;;;;5001741;28;20525;-61
2023/04/21 02:30:49;;;;;;;10.40;5.28;;;;;;;;;;5011061;28;20038;-61
2023/04/21 02:33:16;;;;;;;12.15;5.50;;;;;;;;;;5009254;28;20050;-60
2023/04/21 02:35:43;;;;;;;11.13;5.18;;;;;;;;;;5011438;28;20030;-62
2023/04/21 02:38:10;;;;;;;10.02;3.80;;;;;;;;;;5011921;28;20597;-61
2023/04/21 02:40:36;;;;;;;7.78;3.80;;;;;;;;;;5009161;28;20925;-59
2023/04/21 02:43:03;;;;;;;10.73;4.00;;;;;;;;;;5012167;28;20045;-62
2023/04/21 02:45:30;;;;;;;7.30;3.65;;;;;;;;;;5016995;28;20037;-59
2023/04/21 02:47:58;;;;;;;8.50;3.55;;;;;;;;;;5010914;28;20029;-60
2023/04/21 02:50:25;;;;;;;6.35;3.17;;;;;;;;;;5008540;28;20631;-60
2023/04/21 02:52:51;;;;;;;5.95;2.92;;;;;;;;;;5012380;28;21746;-59
2023/04/21 02:55:18;;;;;;;6.88;3.05;;;;;;;;;;5011128;28;20155;-62
2023/04/21 02:57:45;;;;;;;5.88;2.92;;;;;;;;;;5008374;28;20423;-60
2023/04/21 03:00:12;;;;;;;8.35;2.90;;;;;;;;;;5023451;28;20042;-62
2023/04/21 03:02:39;;;;;;;7.93;3.45;;;;;;;;;;5008856;28;20072;-59
2023/04/21 03:05:06;;;;;;;6.43;2.55;;;;;;;;;;5011089;28;20148;-60
2023/04/21 03:07:33;;;;;;;9.48;4.60;;;;;;;;;;5012482;28;20041;-65
2023/04/21 03:09:59;;;;;;;8.02;3.35;;;;;;;;;;5007115;28;20037;-61
2023/04/21 03:12:26;;;;;;;5.97;3.25;;;;;;;;;;5018383;28;20046;-61
2023/04/21 03:14:53;;;;;;;6.22;2.75;;;;;;;;;;5010552;28;20037;-60
2023/04/21 03:17:20;;;;;;;5.65;3.17;;;;;;;;;;5024491;28;20033;-61
2023/04/21 03:19:46;;;;;;;5.63;2.92;;;;;;;;;;5009967;28;20033;-59
2023/04/21 03:22:13;;;;;;;6.93;3.15;;;;;;;;;;5011207;28;20038;-61
2023/04/21 03:24:40;;;;;;;6.07;2.80;;;;;;;;;;5009687;28;20025;-62
2023/04/21 03:27:06;;;;;;;6.07;2.95;;;;;;;;;;5012243;28;20041;-61
2023/04/21 03:29:33;;;;;;;7.22;3.38;;;;;;;;;;5024561;28;20121;-61
2023/04/21 03:32:00;;;;;;;5.35;3.08;;;;;;;;;;5024996;28;20037;-61
2023/04/21 03:34:27;;;;;;;8.63;3.55;;;;;;;;;;5011406;28;20037;-59
2023/04/21 03:36:54;;;;;;;7.82;3.28;;;;;;;;;;5007112;28;20065;-61
2023/04/21 03:39:21;;;;;;;6.20;2.97;;;;;;;;;;5024195;28;20483;-64
2023/04/21 03:41:48;;;;;;;9.35;3.55;;;;;;;;;;5026209;28;20076;-60
2023/04/21 03:44:14;;;;;;;7.30;3.38;;;;;;;;;;5010609;28;20044;-62
2023/04/21 03:46:41;;;;;;;7.13;3.35;;;;;;;;;;5022779;28;20136;-65
2023/04/21 03:49:08;;;;;;;8.52;3.03;;;;;;;;;;5009328;28;20033;-60
2023/04/21 03:51:34;;;;;;;9.07;3.33;;;;;;;;;;5024027;28;20130;-61
2023/04/21 03:54:01;;;;;;;7.28;2.97;;;;;;;;;;5010856;28;20054;-65
2023/04/21 03:56:27;;;;;;;8.80;3.53;;;;;;;;;;5008330;28;20046;-61
2023/04/21 03:58:54;;;;;;;6.85;3.33;;;;;;;;;;5025061;28;20613;-61
2023/04/21 04:01:21;;;;;;;8.18;3.30;;;;;;;;;;5008803;28;20085;-63
2023/04/21 04:03:47;;;;;;;6.60;3.35;;;;;;;;;;5009096;28;20050;-59
2023/04/21 04:06:14;;;;;;;10.10;5.15;;;;;;;;;;5009288;28;20038;-59
2023/04/21 04:08:41;;;;;;;7.95;3.65;;;;;;;;;;5009249;28;20053;-62
2023/04/21 04:11:07;;;;;;;8.48;3.75;;;;;;;;;;5009183;28;20049;-61
2023/04/21 04:13:34;;;;;;;7.55;3.75;;;;;;;;;;5023137;28;20061;-59
2023/04/21 04:16:01;;;;;;;7.95;3.58;;;;;;;;;;5008739;28;20132;-60
2023/04/21 04:18:27;;;;;;;7.75;3.28;;;;;;;;;;5007552;28;20521;-62
2023/04/21 04:20:54;;;;;;;7.65;3.65;;;;;;;;;;5008894;28;20042;-59
2023/04/21 04:23:21;;;;;;;8.73;3.38;;;;;;;;;;5021966;28;20046;-62
2023/04/21 04:25:48;;;;;;;5.80;2.80;;;;;;;;;;5009229;28;20098;-59
2023/04/21 04:28:14;;;;;;;7.45;3.30;;;;;;;;;;5022495;28;20084;-63
2023/04/21 04:30:42;;;;;;;6.97;3.08;;;;;;;;;;5022581;28;20041;-63
2023/04/21 04:33:10;;;;;;;7.28;3.42;;;;;;;;;;5005346;28;21712;-60
2023/04/21 04:35:37;;;;;;;6.07;3.13;;;;;;;;;;5006319;28;20038;-62
2023/04/21 04:38:03;;;;;;;6.05;3.22;;;;;;;;;;5008061;28;20132;-64
2023/04/21 04:40:32;;;;;;;6.85;3.22;;;;;;;;;;5022986;28;20127;-61
2023/04/21 04:42:58;;;;;;;6.28;3.35;;;;;;;;;;5008981;28;20125;-61
2023/04/21 04:45:28;;;;;;;6.40;3.42;;;;;;;;;;5006475;28;20827;-62
2023/04/21 04:47:55;;;;;;;7.20;3.38;;;;;;;;;;5023635;28;20054;-61
2023/04/21 04:50:21;;;;;;;7.47;3.22;;;;;;;;;;5007173;28;20041;-60
2023/04/21 04:52:48;;;;;;;6.85;3.65;;;;;;;;;;5022982;28;20132;-61
2023/04/21 04:55:15;;;;;;;7.75;3.33;;;;;;;;;;5022931;28;20112;-64
2023/04/21 04:57:42;;;;;;;7.30;3.35;;;;;;;;;;5019958;28;20088;-61
2023/04/21 05:00:10;;;;;;;6.47;3.20;;;;;;;;;;5023082;28;20033;-66
2023/04/21 05:02:40;;;;;;;7.07;3.65;;;;;;;;;;5023869;28;20058;-61
2023/04/21 05:05:07;;;;;;;7.60;3.70;;;;;;;;;;5008458;28;20045;-63
2023/04/21 05:07:34;;;;;;;9.07;3.63;;;;;;;;;;5022399;28;20145;-60
2023/04/21 05:10:03;;;;;;;9.00;3.78;;;;;;;;;;5009739;28;20038;-62
2023/04/21 05:12:31;;;;;;;7.75;3.72;;;;;;;;;;5008414;28;20054;-61
2023/04/21 05:14:57;;;;;;;6.75;3.65;;;;;;;;;;5010940;28;20065;-59
2023/04/21 05:17:24;;;;;;;10.60;3.28;;;;;;;;;;5011699;28;20041;-61
2023/04/21 05:19:51;;;;;;;7.78;3.60;;;;;;;;;;5013039;28;20056;-61
2023/04/21 05:22:18;;;;;;;7.97;3.58;;;;;;;;;;5012438;28;20049;-60
2023/04/21 05:24:45;;;;;;;9.45;3.45;;;;;;;;;;5012145;28;20037;-60
2023/04/21 05:27:11;;;;;;;7.90;3.55;;;;;;;;;;5012762;28;21674;-61
2023/04/21 05:29:38;;;;;;;8.73;3.00;;;;;;;;;;5010187;28;20044;-60
2023/04/21 05:32:05;;;;;;;9.73;3.70;;;;;;;;;;5011829;28;20069;-64
2023/04/21 05:34:32;;;;;;;7.45;3.47;;;;;;;;;;5010145;28;20049;-60
2023/04/21 05:36:58;;;;;;;11.80;3.70;;;;;;;;;;5010550;28;20033;-62
2023/04/21 05:39:27;;;;;;;6.85;3.42;;;;;;;;;;5013770;28;20045;-63
2023/04/21 05:41:53;;;;;;;7.95;3.92;;;;;;;;;;5011756;28;20046;-62
2023/04/21 05:44:20;;;;;;;9.15;3.55;;;;;;;;;;5011289;28;20084;-65
2023/04/21 05:46:47;;;;;;;7.18;3.60;;;;;;;;;;5011031;28;20080;-60
2023/04/21 05:49:13;;;;;;;8.60;3.67;;;;;;;;;;5012708;28;20050;-60
2023/04/21 05:51:40;;;;;;;6.32;3.38;;;;;;;;;;5012374;28;20518;-61
2023/04/21 05:54:07;;;;;;;7.82;3.80;;;;;;;;;;5012564;28;20090;-60
2023/04/21 05:56:33;;;;;;;9.30;3.92;;;;;;;;;;5009665;28;20088;-62
2023/04/21 05:59:00;;;;;;;8.35;3.60;;;;;;;;;;5011674;28;20448;-60
2023/04/21 06:01:27;;;;;;;10.02;4.30;;;;;;;;;;5012082;28;20046;-59
2023/04/21 06:03:53;;;;;;;7.63;3.55;;;;;;;;;;5027550;28;20046;-59
2023/04/21 06:06:20;;;;;;;9.02;4.03;;;;;;;;;;5011653;28;20096;-66
2023/04/21 06:08:47;;;;;;;7.50;3.72;;;;;;;;;;5011903;28;20087;-63
2023/04/21 06:11:13;;;;;;;7.80;3.70;;;;;;;;;;5011727;28;20048;-60
2023/04/21 06:13:40;;;;;;;9.93;3.72;;;;;;;;;;5009051;28;20034;-61
2023/04/21 06:16:06;;;;;;;8.95;3.63;;;;;;;;;;5026024;28;20037;-60
2023/04/21 06:18:33;;;;;;;7.03;3.53;;;;;;;;;;5024066;28;20038;-62
2023/04/21 06:21:00;;;;;;;7.45;3.75;;;;;;;;;;5011712;28;20038;-63
2023/04/21 06:23:26;;;;;;;7.82;3.83;;;;;;;;;;5011102;28;20154;-64
2023/04/21 06:26:03;;;;;;;6.57;3.15;;;;;;;;;;5024663;28;20092;-61
2023/04/21 06:28:29;;;;;;;6.65;3.38;;;;;;;;;;5012049;28;20505;-63
2023/04/21 06:31:17;;;;;;;7.65;3.53;;;;;;;;;;5012685;28;20453;-61
2023/04/21 06:33:44;;;;;;;12.65;3.40;;;;;;;;;;4994359;28;20092;-63
2023/04/21 06:36:11;;;;;;;6.70;3.15;;;;;;;;;;5006878;28;20041;-63
2023/04/21 06:38:40;;;;;;;7.28;3.50;;;;;;;;;;5006019;28;20601;-63
2023/04/21 06:41:07;;;;;;;8.88;3.55;;;;;;;;;;5008091;28;20111;-61
2023/04/21 06:43:33;;;;;;;7.25;3.47;;;;;;;;;;5005922;28;20042;-62
2023/04/21 06:46:00;;;;;;;6.38;3.17;;;;;;;;;;4992098;28;20052;-62
2023/04/21 06:48:28;;;;;;;8.15;3.72;;;;;;;;;;4997998;28;20165;-66
2023/04/21 06:50:55;;;;;;;7.07;3.50;;;;;;;;;;5008158;28;20363;-60
2023/04/21 06:53:22;;;;;;;7.72;3.25;;;;;;;;;;5005864;28;20053;-62
2023/04/21 06:55:49;;;;;;;7.15;3.38;;;;;;;;;;5006923;28;20037;-61
2023/04/21 06:58:15;;;;;;;10.70;3.67;;;;;;;;;;5007062;28;20054;-67
2023/04/21 07:00:42;;;;;;;8.63;4.03;;;;;;;;;;5003672;28;20048;-62
2023/04/21 07:03:09;;;;;;;9.40;4.05;;;;;;;;;;5008325;28;20123;-61
2023/04/21 07:05:35;;;;;;;8.30;3.97;;;;;;;;;;5007721;28;20041;-64
2023/04/21 07:08:02;;;;;;;7.43;3.70;;;;;;;;;;5007880;28;20267;-63
2023/04/21 07:10:29;;;;;;;9.85;4.63;;;;;;;;;;5008818;28;20045;-60
2023/04/21 07:12:56;;;;;;;8.55;4.57;;;;;;;;;;5026176;28;20402;-62
2023/04/21 07:15:22;;;;;;;6.65;3.75;;;;;;;;;;5011949;28;20045;-63
2023/04/21 07:17:49;;;;;;;6.40;3.95;;;;;;;;;;5004946;28;20029;-59
2023/04/21 07:20:17;;;;;;;9.13;4.28;;;;;;;;;;5026600;28;20478;-60
2023/04/21 07:22:44;;;;;;;7.75;4.20;;;;;;;;;;5009159;28;21104;-61
2023/04/21 07:25:11;;;;;;;9.77;4.97;;;;;;;;;;5013604;28;20514;-62
2023/04/21 07:27:38;;;;;;;8.52;4.65;;;;;;;;;;5009238;28;20034;-61
2023/04/21 07:30:05;;;;;;;7.20;4.25;;;;;;;;;;5010004;28;20034;-62
2023/04/21 07:32:32;;;;;;;9.07;4.63;;;;;;;;;;5010315;28;20044;-64
2023/04/21 07:35:00;;;;;;;9.40;4.70;;;;;;;;;;5009301;28;20049;-61
2023/04/21 07:37:27;;;;;;;10.13;4.75;;;;;;;;;;5008846;28;20037;-64
2023/04/21 07:39:54;;;;;;;8.95;3.97;;;;;;;;;;5010024;28;20045;-62
2023/04/21 07:42:21;;;;;;;11.90;4.32;;;;;;;;;;5024603;28;20042;-58
2023/04/21 07:44:48;;;;;;;8.75;4.88;;;;;;;;;;4999970;28;20041;-58
2023/04/21 07:47:14;;;;;;;8.43;3.95;;;;;;;;;;5009055;28;20145;-61
2023/04/21 07:49:41;;;;;;;9.73;4.65;;;;;;;;;;5007988;28;20057;-58
2023/04/21 07:52:08;;;;;;;9.35;4.47;;;;;;;;;;5009541;28;20038;-62
2023/04/21 07:54:34;;;;;;;8.07;4.80;;;;;;;;;;5024391;28;20073;-60
2023/04/21 07:57:01;;;;;;;8.68;4.78;;;;;;;;;;5008618;28;20043;-62
2023/04/21 07:59:28;;;;;;;8.38;5.15;;;;;;;;;;5008144;28;20062;-61
2023/04/21 08:01:55;;;;;;;8.77;4.65;;;;;;;;;;5009124;28;20413;-60
2023/04/21 08:04:21;;;;;;;8.50;4.43;;;;;;;;;;5008358;28;20052;-61
2023/04/21 08:06:48;;;;;;;9.75;5.00;;;;;;;;;;5008121;28;20048;-62
2023/04/21 08:09:15;;;;;;;9.80;4.85;;;;;;;;;;5009735;28;20462;-59
2023/04/21 08:11:41;;;;;;;9.20;5.15;;;;;;;;;;5009447;28;25140;-64
2023/04/21 08:14:10;;;;;;;8.77;4.85;;;;;;;;;;5009225;28;20165;-61
2023/04/21 08:16:37;;;;;;;11.45;5.25;;;;;;;;;;5008458;28;20123;-63
2023/04/21 08:19:05;;;;;;;8.85;4.53;;;;;;;;;;5009763;28;20037;-59
2023/04/21 08:21:32;;;;;;;9.75;5.03;;;;;;;;;;5022004;28;20077;-61
2023/04/21 08:23:59;;;;;;;9.50;4.78;;;;;;;;;;5024074;28;20862;-63
2023/04/21 08:26:26;;;;;;;8.98;5.07;;;;;;;;;;5007839;28;20522;-62
2023/04/21 08:28:53;;;;;;;11.68;4.75;;;;;;;;;;5017755;28;20083;-63
2023/04/21 08:31:19;;;;;;;10.48;5.05;;;;;;;;;;5024070;28;20471;-62
2023/04/21 08:33:47;;;;;;;9.82;4.72;;;;;;;;;;5024878;28;20819;-62
2023/04/21 08:36:13;;;;;;;8.60;4.35;;;;;;;;;;5008425;28;20101;-61
2023/04/21 08:38:42;;;;;;;10.38;4.90;;;;;;;;;;5007533;28;20187;-60
2023/04/21 08:41:09;;;;;;;10.35;5.18;;;;;;;;;;5009924;28;20046;-61
2023/04/21 08:43:36;;;;;;;9.88;4.57;;;;;;;;;;5009641;28;20045;-60
2023/04/21 08:46:06;;;;;;;10.57;5.22;;;;;;;;;;5009503;28;20120;-61
2023/04/21 08:48:34;;;;;;;8.55;4.93;;;;;;;;;;5009378;28;20095;-60
2023/04/21 08:51:01;;;;;;;10.27;5.45;;;;;;;;;;5009654;28;20079;-61
2023/04/21 08:53:28;;;;;;;10.43;5.78;;;;;;;;;;5010124;28;20042;-63
2023/04/21 08:55:58;;;;;;;9.98;4.75;;;;;;;;;;5009374;28;20571;-59
2023/04/21 08:58:25;;;;;;;11.27;5.65;;;;;;;;;;5008741;28;20046;-61
2023/04/21 09:00:51;;;;;;;9.98;5.07;;;;;;;;;;5022644;28;20037;-62
2023/04/21 09:03:25;;;;;;;10.07;5.68;;;;;;;;;;5008247;28;20048;-61
2023/04/21 09:06:05;;;;;;;10.20;5.30;;;;;;;;;;5008054;28;20533;-64
2023/04/21 09:08:32;;;;;;;11.68;5.55;;;;;;;;;;5009369;28;20048;-62
2023/04/21 09:11:00;;;;;;;9.43;5.50;;;;;;;;;;5008789;28;20033;-62
2023/04/21 09:13:31;;;;;;;10.73;5.63;;;;;;;;;;5008833;28;20071;-62
2023/04/21 09:15:58;;;;;;;10.18;5.47;;;;;;;;;;5009360;28;20140;-61
2023/04/21 09:18:26;;;;;;;10.45;5.65;;;;;;;;;;5007361;28;20094;-60
2023/04/21 09:21:05;;;;;;;11.55;5.68;;;;;;;;;;5007403;28;20038;-61
2023/04/21 09:23:31;;;;;;;11.13;5.78;;;;;;;;;;5009548;28;20057;-60
2023/04/21 09:25:58;;;;;;;9.68;5.07;;;;;;;;;;5005929;28;20387;-61
2023/04/21 09:28:33;;;;;;;11.98;5.70;;;;;;;;;;5008564;28;20465;-61
2023/04/21 09:31:00;;;;;;;9.15;5.05;;;;;;;;;;5007118;28;20030;-64
2023/04/21 09:33:27;;;;;;;8.70;5.05;;;;;;;;;;5006224;28;20065;-62
2023/04/21 09:35:53;;;;;;;9.52;4.80;;;;;;;;;;5006378;28;20049;-63
2023/04/21 09:38:22;;;;;;;8.45;4.70;;;;;;;;;;5007348;28;20127;-63
2023/04/21 09:40:58;;;;;;;9.27;5.18;;;;;;;;;;5021100;28;20057;-61
2023/04/21 09:43:25;;;;;;;9.07;4.65;;;;;;;;;;5007732;28;20061;-62
2023/04/21 09:45:52;;;;;;;10.35;4.90;;;;;;;;;;5007039;28;20870;-60
2023/04/21 09:48:19;;;;;;;10.30;5.00;;;;;;;;;;5005813;28;20099;-64
2023/04/21 09:50:46;;;;;;;9.43;4.55;;;;;;;;;;5007860;28;20053;-61
2023/04/21 09:53:15;;;;;;;10.25;5.43;;;;;;;;;;5008486;28;20535;-61
2023/04/21 09:55:43;;;;;;;10.77;5.13;;;;;;;;;;5003532;28;20258;-62
2023/04/21 09:58:14;;;;;;;9.15;5.45;;;;;;;;;;5007978;28;20033;-60
2023/04/21 10:00:41;;;;;;;11.63;5.25;;;;;;;;;;5007720;28;20045;-61
2023/04/21 10:03:10;;;;;;;9.45;5.22;;;;;;;;;;5011060;28;20045;-60
2023/04/21 10:05:40;;;;;;;8.32;4.60;;;;;;;;;;5008262;28;20063;-62
2023/04/21 10:08:10;;;;;;;9.52;5.30;;;;;;;;;;5012891;28;20063;-64
2023/04/21 10:10:37;;;;;;;9.57;5.28;;;;;;;;;;5009316;28;20029;-62
2023/04/21 10:13:04;;;;;;;9.63;5.07;;;;;;;;;;5011842;28;20049;-60
2023/04/21 10:15:32;;;;;;;9.13;4.95;;;;;;;;;;5009312;28;20041;-60
2023/04/21 10:18:17;;;;;;;9.98;5.22;;;;;;;;;;5012783;28;20093;-61
2023/04/21 10:20:55;;;;;;;10.30;4.43;;;;;;;;;;5025335;28;20603;-59
2023/04/21 10:23:42;;;;;;;10.25;5.10;;;;;;;;;;5013690;28;20053;-58
2023/04/21 10:26:09;;;;;;;9.48;4.97;;;;;;;;;;5012871;28;20044;-60
2023/04/21 10:28:46;;;;;;;8.35;5.03;;;;;;;;;;5013274;28;20061;-60
2023/04/21 10:31:20;;;;;;;7.72;4.38;;;;;;;;;;5010751;28;20473;-58
2023/04/21 10:34:05;;;;;;;10.18;4.78;;;;;;;;;;5013139;28;20120;-60
2023/04/21 10:36:36;;;;;;;8.40;4.63;;;;;;;;;;5009925;28;20064;-60
2023/04/21 10:39:03;;;;;;;8.45;4.97;;;;;;;;;;5008006;28;20049;-61
2023/04/21 10:41:31;;;;;;;7.78;4.85;;;;;;;;;;5006864;28;20063;-59
2023/04/21 10:43:58;;;;;;;8.60;5.03;;;;;;;;;;5008559;28;20044;-62
2023/04/21 10:46:33;;;;;;;10.95;4.90;;;;;;;;;;5008070;28;20037;-60
2023/04/21 10:49:10;;;;;;;11.45;5.38;;;;;;;;;;5011447;28;20053;-60
2023/04/21 10:51:55;;;;;;;9.65;5.10;;;;;;;;;;5009816;28;20371;-60
2023/04/21 10:54:22;;;;;;;8.52;4.72;;;;;;;;;;5010442;28;20030;-63
2023/04/21 10:56:53;;;;;;;9.38;4.93;;;;;;;;;;5023195;28;20051;-60
2023/04/21 10:59:20;;;;;;;11.68;5.05;;;;;;;;;;5011799;28;20042;-67
2023/04/21 11:01:46;;;;;;;9.77;5.10;;;;;;;;;;5024038;28;20104;-60
2023/04/21 11:04:14;;;;;;;7.55;4.50;;;;;;;;;;5010598;28;20037;-61
2023/04/21 11:06:40;;;;;;;10.50;5.05;;;;;;;;;;5008737;28;20065;-63
2023/04/21 11:09:08;;;;;;;8.63;4.78;;;;;;;;;;5025161;28;20040;-61
2023/04/21 11:11:35;;;;;;;9.48;5.03;;;;;;;;;;5010258;28;20034;-62
2023/04/21 11:14:02;;;;;;;11.27;4.28;;;;;;;;;;5012055;28;20049;-61
2023/04/21 11:16:29;;;;;;;9.13;5.10;;;;;;;;;;5009173;28;20057;-58
2023/04/21 11:18:58;;;;;;;8.73;4.47;;;;;;;;;;5009861;28;20029;-61
2023/04/21 11:21:25;;;;;;;12.05;5.07;;;;;;;;;;5008812;28;20062;-61
2023/04/21 11:23:56;;;;;;;9.65;5.35;;;;;;;;;;5027610;28;20045;-60
2023/04/21 11:26:32;;;;;;;10.05;5.30;;;;;;;;;;5025274;28;20110;-59
2023/04/21 11:29:06;;;;;;;11.05;5.20;;;;;;;;;;5026689;28;20037;-60
2023/04/21 11:31:33;;;;;;;8.38;4.95;;;;;;;;;;5026155;28;20072;-61
2023/04/21 11:34:01;;;;;;;8.13;4.82;;;;;;;;;;5011449;28;20069;-61
2023/04/21 11:36:28;;;;;;;8.15;4.82;;;;;;;;;;5009841;28;20030;-62
2023/04/21 11:38:54;;;;;;;9.93;5.32;;;;;;;;;;5012291;28;20061;-61
2023/04/21 11:41:22;;;;;;;10.82;4.55;;;;;;;;;;5010770;28;20605;-61
2023/04/21 11:43:49;;;;;;;10.57;5.35;;;;;;;;;;5010997;28;20044;-60
2023/04/21 11:46:23;;;;;;;10.93;5.20;;;;;;;;;;5009601;28;20109;-61
2023/04/21 11:49:00;;;;;;;8.85;5.18;;;;;;;;;;5011897;28;20041;-63
2023/04/21 11:51:30;;;;;;;8.73;4.95;;;;;;;;;;5025658;28;20045;-63
2023/04/21 11:53:58;;;;;;;8.02;4.70;;;;;;;;;;5012955;28;20041;-60
2023/04/21 11:56:25;;;;;;;7.75;4.40;;;;;;;;;;5010147;28;20055;-63
2023/04/21 11:58:52;;;;;;;10.93;4.95;;;;;;;;;;5012596;28;20038;-64
2023/04/21 12:01:19;;;;;;;8.95;5.05;;;;;;;;;;5023529;28;20394;-61
2023/04/21 12:03:53;;;;;;;8.63;4.53;;;;;;;;;;5011838;28;20073;-60
2023/04/21 12:06:19;;;;;;;;;;;;;;;;;;5009717;28;20116;-62
2023/04/21 12:08:46;;;;;;;9.98;4.57;;;;;;;;;;5000224;28;19922;-61
2023/04/21 12:11:15;;;;;;;9.57;4.25;;;;;;;;;;5009905;28;20046;-61
2023/04/21 12:13:42;;;;;;;8.13;4.72;;;;;;;;;;5024758;28;20049;-61
2023/04/21 12:16:09;;;;;;;7.35;4.45;;;;;;;;;;5009609;28;20030;-63
2023/04/21 12:18:36;;;;;;;6.15;3.80;;;;;;;;;;5024873;28;20100;-60
2023/04/21 12:21:04;;;;;;;9.05;4.63;;;;;;;;;;5024091;28;20054;-62
2023/04/21 12:23:30;;;;;;;9.73;4.90;;;;;;;;;;5007913;28;20044;-60
2023/04/21 12:25:57;;;;;;;9.20;4.28;;;;;;;;;;5009005;28;20053;-65
2023/04/21 12:28:24;;;;;;;9.93;5.05;;;;;;;;;;5007811;28;20056;-60
2023/04/21 12:30:51;;;;;;;14.90;5.03;;;;;;;;;;5008642;28;20140;-62
2023/04/21 12:33:18;;;;;;;11.55;5.43;;;;;;;;;;5024370;28;20133;-61
2023/04/21 12:35:44;;;;;;;8.02;4.78;;;;;;;;;;5009729;28;20049;-58
2023/04/21 12:38:11;;;;;;;9.15;4.82;;;;;;;;;;5008369;28;20188;-62
2023/04/21 12:40:38;;;;;;;8.25;4.45;;;;;;;;;;5021180;28;20060;-62
2023/04/21 12:43:04;;;;;;;9.20;4.20;;;;;;;;;;5022481;28;20046;-62
2023/04/21 12:45:33;;;;;;;9.90;4.53;;;;;;;;;;5008148;28;20460;-61
2023/04/21 12:48:00;;;;;;;7.20;4.32;;;;;;;;;;5021623;28;20037;-60
2023/04/21 12:50:27;;;;;;;10.30;5.20;;;;;;;;;;5008452;28;20517;-61
2023/04/21 12:52:54;;;;;;;11.15;4.85;;;;;;;;;;5007826;28;20033;-63
2023/04/21 12:55:21;;;;;;;10.40;4.75;;;;;;;;;;5009769;28;20499;-61
2023/04/21 12:57:49;;;;;;;8.15;4.50;;;;;;;;;;5004794;28;20045;-61
2023/04/21 13:00:15;;;;;;;8.50;4.75;;;;;;;;;;5023152;28;20077;-61
2023/04/21 13:02:42;;;;;;;10.38;4.60;;;;;;;;;;5006964;28;20080;-63
2023/04/21 13:05:10;;;;;;;10.65;5.07;;;;;;;;;;5022656;28;20039;-61
2023/04/21 13:07:37;;;;;;;9.63;5.47;;;;;;;;;;5009264;28;20034;-64
2023/04/21 13:10:05;;;;;;;10.95;5.63;;;;;;;;;;5009365;28;20050;-57
2023/04/21 13:12:32;;;;;;;11.30;5.18;;;;;;;;;;5006076;28;20050;-60
2023/04/21 13:14:59;;;;;;;9.82;5.57;;;;;;;;;;5009706;28;20096;-60
2023/04/21 13:17:25;;;;;;;8.95;5.45;;;;;;;;;;5008952;28;20365;-59
2023/04/21 13:19:52;;;;;;;10.52;4.32;;;;;;;;;;5010358;28;20104;-60
2023/04/21 13:22:19;;;;;;;9.15;5.10;;;;;;;;;;5008620;28;21849;-62
2023/04/21 13:24:45;;;;;;;11.57;5.35;;;;;;;;;;5007079;28;20585;-60
2023/04/21 13:27:12;;;;;;;10.23;5.22;;;;;;;;;;5008106;28;20799;-63
2023/04/21 13:29:39;;;;;;;9.50;4.95;;;;;;;;;;5010610;28;20044;-58
2023/04/21 13:32:06;;;;;;;11.55;5.55;;;;;;;;;;5010112;28;20333;-60
2023/04/21 13:34:33;;;;;;;9.45;5.32;;;;;;;;;;5010391;28;20056;-62
2023/04/21 13:37:03;;;;;;;9.68;5.18;;;;;;;;;;5010651;28;20041;-58
2023/04/21 13:39:30;;;;;;;9.73;5.00;;;;;;;;;;5009989;28;20046;-63
2023/04/21 13:41:56;;;;;;;11.13;6.40;;;;;;;;;;5013173;28;20046;-63
2023/04/21 13:44:23;;;;;;;9.23;5.00;;;;;;;;;;5025527;28;20041;-60
2023/04/21 13:46:51;;;;;;;10.60;5.25;;;;;;;;;;5010920;28;20128;-59
2023/04/21 13:49:18;;;;;;;9.20;5.32;;;;;;;;;;5012533;28;20071;-63
2023/04/21 13:51:44;;;;;;;9.40;5.50;;;;;;;;;;5011102;28;20053;-60
2023/04/21 13:54:11;;;;;;;10.75;4.80;;;;;;;;;;5007305;28;20052;-60
2023/04/21 13:56:38;;;;;;;10.60;5.03;;;;;;;;;;5018787;28;20038;-61
2023/04/21 13:59:05;;;;;;;9.10;5.10;;;;;;;;;;5012420;28;20033;-58
2023/04/21 14:01:32;;;;;;;8.75;5.22;;;;;;;;;;5009998;28;20044;-60
2023/04/21 14:03:58;;;;;;;11.80;4.60;;;;;;;;;;5011177;28;20396;-58
2023/04/21 14:06:25;;;;;;;10.85;4.95;;;;;;;;;;5022280;28;20160;-61
2023/04/21 14:08:53;;;;;;;8.95;5.25;;;;;;;;;;5026491;28;20041;-59
2023/04/21 14:11:20;;;;;;;10.32;4.63;;;;;;;;;;5011176;28;20460;-60
2023/04/21 14:13:46;;;;;;;9.38;4.82;;;;;;;;;;5011966;28;20104;-63
2023/04/21 14:16:13;;;;;;;8.90;4.93;;;;;;;;;;5026813;28;20033;-63
2023/04/21 14:18:43;;;;;;;11.48;5.03;;;;;;;;;;5011348;28;21102;-60
2023/04/21 14:21:11;;;;;;;11.82;4.82;;;;;;;;;;5011105;28;20128;-62
2023/04/21 14:23:37;;;;;;;8.80;4.35;;;;;;;;;;5013572;28;20042;-59
2023/04/21 14:26:05;;;;;;;9.20;4.72;;;;;;;;;;5011719;28;20668;-59
2023/04/21 14:28:33;;;;;;;8.88;4.72;;;;;;;;;;5010890;28;20052;-61
2023/04/21 14:30:59;;;;;;;12.07;4.60;;;;;;;;;;5010642;28;20045;-62
2023/04/21 14:33:27;;;;;;;10.15;4.97;;;;;;;;;;5011701;28;20065;-61
2023/04/21 14:35:54;;;;;;;12.32;4.70;;;;;;;;;;5011548;28;20406;-60
2023/04/21 14:38:20;;;;;;;11.88;4.65;;;;;;;;;;5027061;28;20037;-63
2023/04/21 14:40:48;;;;;;;7.60;4.80;;;;;;;;;;5013915;28;20124;-60
2023/04/21 14:43:15;;;;;;;7.85;4.95;;;;;;;;;;5026392;28;20073;-59